Time;durP1;ratioP1;P1;durP2;ratioP2;P2;SDS_P1;SDS_P2;PMS_P1;PMS_P2;Temp;Humidity;BMP_temperature;BMP_pressure;BME280_temperature;BME280_humidity;BME280_pressure;Samples;Min_cycle;Max_cycle;Signal;HPM_P1;HPM_P2
2021/10/14 00:00:41;;;;;;;23.80;12.95;;;;;;;4.33;75.33;101692.78;1687574;85;21090;-81
2021/10/14 00:03:12;;;;;;;22.62;12.00;;;;;;;4.35;75.33;101691.17;1700021;84;21578;-81
2021/10/14 00:05:42;;;;;;;24.65;13.05;;;;;;;4.39;75.37;101680.16;1687436;85;21025;-81
2021/10/14 00:08:07;;;;;;;23.38;12.07;;;;;;;4.41;75.29;101682.84;1699905;84;21048;-81
2021/10/14 00:10:36;;;;;;;21.95;12.93;;;;;;;4.43;75.32;101674.72;1664577;85;21038;-80
2021/10/14 00:13:03;;;;;;;24.72;12.60;;;;;;;4.47;75.32;101673.73;1700081;84;21626;-82
2021/10/14 00:15:29;;;;;;;20.77;12.07;;;;;;;4.50;75.31;101666.91;1687534;85;21023;-83
2021/10/14 00:17:58;;;;;;;21.25;11.00;;;;;;;4.53;75.23;101660.59;1700255;84;21041;-81
2021/10/14 00:20:25;;;;;;;20.50;10.98;;;;;;;4.53;75.15;101656.69;1687323;85;21134;-83
2021/10/14 00:22:52;;;;;;;19.10;11.03;;;;;;;4.54;75.27;101651.54;1700154;84;21757;-82
2021/10/14 00:25:21;;;;;;;24.43;11.05;;;;;;;4.56;75.26;101651.27;1687292;85;21556;-82
2021/10/14 00:27:49;;;;;;;20.52;10.90;;;;;;;4.62;75.42;101648.15;1700175;84;21696;-83
2021/10/14 00:30:16;;;;;;;19.98;9.93;;;;;;;4.68;75.39;101647.22;1687813;83;21200;-83
2021/10/14 00:32:43;;;;;;;17.92;9.55;;;;;;;4.73;75.43;101634.08;1689821;84;21101;-83
2021/10/14 00:35:10;;;;;;;16.70;9.58;;;;;;;4.80;75.49;101633.63;1690134;84;21808;-83
2021/10/14 00:37:37;;;;;;;22.17;10.78;;;;;;;4.86;75.45;101627.52;1698145;84;21080;-82
2021/10/14 00:40:05;;;;;;;18.20;9.85;;;;;;;4.93;75.39;101635.70;1689964;84;21070;-81
2021/10/14 00:42:35;;;;;;;24.80;10.00;;;;;;;4.99;75.42;101635.70;1690515;84;21126;-81
2021/10/14 00:45:03;;;;;;;22.48;11.38;;;;;;;5.06;75.31;101636.55;1689771;84;21042;-82
2021/10/14 00:47:29;;;;;;;24.82;11.35;;;;;;;5.12;75.21;101636.02;1668680;85;21765;-82
2021/10/14 00:49:57;;;;;;;26.48;12.18;;;;;;;5.16;75.00;101639.34;1690438;84;21091;-81
2021/10/14 00:52:26;;;;;;;22.32;11.10;;;;;;;5.15;74.90;101632.30;1663833;84;21561;-81
2021/10/14 00:54:53;;;;;;;22.35;10.78;;;;;;;5.19;75.00;101634.70;1690055;84;21631;-81
2021/10/14 00:57:19;;;;;;;18.12;9.15;;;;;;;5.25;75.14;101633.37;1690054;84;21085;-81
2021/10/14 00:59:46;;;;;;;20.85;9.50;;;;;;;5.32;75.10;101631.13;1668263;84;21775;-82
2021/10/14 01:02:13;;;;;;;17.37;8.40;;;;;;;5.37;75.07;101634.52;1732906;82;21065;-82
2021/10/14 01:04:39;;;;;;;16.45;6.85;;;;;;;5.40;75.04;101633.78;1697744;84;21120;-82
2021/10/14 01:07:06;;;;;;;10.95;5.67;;;;;;;5.48;75.11;101630.33;1732886;82;21049;-82
2021/10/14 01:09:33;;;;;;;12.33;5.78;;;;;;;5.57;75.13;101628.27;1714107;82;21104;-82
2021/10/14 01:12:01;;;;;;;9.20;5.28;;;;;;;5.66;75.11;101626.20;1698173;84;21774;-82
2021/10/14 01:14:30;;;;;;;9.55;5.12;;;;;;;5.77;75.10;101630.75;1732356;82;21105;-82
2021/10/14 01:16:57;;;;;;;12.70;6.55;;;;;;;5.83;75.03;101619.34;1698076;84;21097;-82
2021/10/14 01:19:27;;;;;;;9.35;5.17;;;;;;;5.89;74.98;101620.11;1733286;81;21023;-82
2021/10/14 01:21:53;;;;;;;8.55;5.03;;;;;;;5.94;74.93;101616.95;1697689;84;21221;-81
2021/10/14 01:24:20;;;;;;;11.85;5.35;;;;;;;6.01;74.99;101617.83;1732916;82;21947;-82
2021/10/14 01:26:47;;;;;;;8.33;4.80;;;;;;;6.08;74.91;101617.79;1697691;84;21076;-82
2021/10/14 01:29:13;;;;;;;9.45;4.80;;;;;;;6.13;74.86;101618.03;1732934;82;21552;-82
2021/10/14 01:31:40;;;;;;;9.28;4.85;;;;;;;6.17;74.83;101616.97;1711866;83;21106;-83
2021/10/14 01:34:08;;;;;;;9.03;4.95;;;;;;;6.21;74.81;101612.83;1688483;84;21587;-82
2021/10/14 01:36:35;;;;;;;8.20;4.50;;;;;;;6.25;74.74;101617.44;1718646;83;22479;-81
2021/10/14 01:39:03;;;;;;;9.55;5.10;;;;;;;6.30;74.74;101619.87;1718734;83;21062;-82
2021/10/14 01:41:30;;;;;;;8.38;4.42;;;;;;;6.35;74.70;101617.13;1743907;82;21034;-82
2021/10/14 01:43:56;;;;;;;10.08;5.05;;;;;;;6.41;74.71;101619.18;1718790;83;21316;-82
2021/10/14 01:46:23;;;;;;;7.10;4.00;;;;;;;6.45;74.61;101616.33;1699983;84;21089;-82
2021/10/14 01:48:51;;;;;;;9.88;4.58;;;;;;;6.45;74.44;101619.84;1700036;84;21806;-81
2021/10/14 01:51:18;;;;;;;9.55;4.70;;;;;;;6.46;74.43;101619.42;1699692;84;21642;-81
2021/10/14 01:53:44;;;;;;;7.42;4.10;;;;;;;6.47;74.39;101616.00;1699958;84;21159;-81
2021/10/14 01:56:11;;;;;;;6.53;3.60;;;;;;;6.43;74.27;101610.59;1699943;84;21132;-81
2021/10/14 01:58:40;;;;;;;7.15;4.33;;;;;;;6.36;74.21;101615.40;1699988;84;21022;-81
2021/10/14 02:01:07;;;;;;;7.20;4.17;;;;;;;6.32;74.19;101614.74;1700033;84;22759;-81
2021/10/14 02:03:34;;;;;;;9.08;4.70;;;;;;;6.26;74.10;101609.18;1688553;84;21130;-81
2021/10/14 02:06:01;;;;;;;5.67;3.87;;;;;;;6.16;74.07;101613.88;1688806;84;21054;-81
2021/10/14 02:08:28;;;;;;;7.22;3.55;;;;;;;6.07;74.05;101617.28;1688869;84;21663;-82
2021/10/14 02:10:55;;;;;;;4.58;2.70;;;;;;;5.88;74.09;101603.95;1675948;84;21092;-81
2021/10/14 02:13:21;;;;;;;4.70;2.45;;;;;;;5.90;74.19;101624.13;1700126;84;21861;-80
2021/10/14 02:15:48;;;;;;;4.60;2.98;;;;;;;5.87;74.34;101628.27;1688624;84;21579;-82
2021/10/14 02:18:18;;;;;;;7.92;3.47;;;;;;;5.84;74.40;101619.44;1688392;84;21099;-82
2021/10/14 02:20:45;;;;;;;7.30;3.45;;;;;;;5.85;74.57;101622.94;1688537;84;21134;-82
2021/10/14 02:23:12;;;;;;;5.55;2.90;;;;;;;5.84;74.60;101620.75;1744392;82;21050;-81
2021/10/14 02:25:39;;;;;;;6.12;3.50;;;;;;;5.84;74.66;101620.75;1719102;83;21848;-81
2021/10/14 02:28:07;;;;;;;6.78;3.20;;;;;;;5.84;74.72;101618.55;1670372;84;21582;-81
2021/10/14 02:30:35;;;;;;;7.28;3.42;;;;;;;5.85;74.77;101620.33;1698700;83;21654;-82
2021/10/14 02:33:02;;;;;;;7.58;3.80;;;;;;;5.87;74.79;101617.81;1686668;85;21335;-81
2021/10/14 02:35:29;;;;;;;5.40;3.50;;;;;;;5.89;74.81;101616.19;1686993;84;21137;-81
2021/10/14 02:37:56;;;;;;;5.58;3.45;;;;;;;5.90;74.75;101608.86;1687415;84;22015;-82
2021/10/14 02:40:23;;;;;;;6.75;3.47;;;;;;;5.91;74.72;101605.41;1688478;84;21082;-81
2021/10/14 02:42:51;;;;;;;7.25;3.75;;;;;;;5.91;74.70;101607.64;1664108;84;21047;-82
2021/10/14 02:45:18;;;;;;;8.80;3.80;;;;;;;5.94;74.80;101607.80;1700202;84;21108;-82
2021/10/14 02:47:45;;;;;;;6.12;2.83;;;;;;;5.96;74.82;101606.63;1686912;85;21047;-81
2021/10/14 02:50:12;;;;;;;5.80;3.52;;;;;;;5.96;74.71;101607.92;1670759;85;21807;-82
2021/10/14 02:52:40;;;;;;;6.75;3.52;;;;;;;5.95;74.75;101605.73;1687350;85;21106;-83
2021/10/14 02:55:08;;;;;;;8.05;3.80;;;;;;;5.94;74.76;101602.57;1670623;85;21065;-83
2021/10/14 02:57:34;;;;;;;8.43;4.37;;;;;;;5.93;74.77;101598.55;1687377;85;21583;-83
2021/10/14 03:00:01;;;;;;;6.00;3.47;;;;;;;5.93;74.81;101594.64;1700189;84;21045;-83
2021/10/14 03:02:28;;;;;;;6.85;3.55;;;;;;;5.91;74.87;101599.80;1687355;85;21801;-82
2021/10/14 03:04:55;;;;;;;6.25;3.65;;;;;;;5.91;74.93;101597.19;1670528;85;21067;-83
2021/10/14 03:07:21;;;;;;;4.87;3.27;;;;;;;5.92;74.95;101602.89;1687530;85;21134;-82
2021/10/14 03:09:48;;;;;;;10.38;4.42;;;;;;;5.93;75.00;101603.78;1670405;85;21129;-82
2021/10/14 03:12:15;;;;;;;8.70;3.85;;;;;;;5.95;75.01;101604.42;1687496;85;21137;-83
2021/10/14 03:14:42;;;;;;;6.67;4.25;;;;;;;5.95;74.95;101599.55;1670519;85;22527;-82
2021/10/14 03:17:09;;;;;;;6.37;4.35;;;;;;;5.97;74.98;101600.18;1687242;85;21110;-81
2021/10/14 03:19:37;;;;;;;7.50;3.98;;;;;;;5.96;74.92;101590.53;1670435;85;21131;-81
2021/10/14 03:22:04;;;;;;;7.37;4.20;;;;;;;5.96;74.92;101589.22;1687539;85;21512;-82
2021/10/14 03:24:31;;;;;;;7.25;4.15;;;;;;;5.95;74.94;101593.01;1670521;85;21542;-82
2021/10/14 03:26:58;;;;;;;8.65;4.22;;;;;;;6.01;75.02;101593.42;1687259;85;21714;-82
2021/10/14 03:29:24;;;;;;;9.00;4.20;;;;;;;6.05;75.00;101593.19;1670419;85;21662;-82
2021/10/14 03:31:53;;;;;;;7.17;4.08;;;;;;;6.08;75.03;101591.66;1686695;83;21618;-82
2021/10/14 03:34:20;;;;;;;7.53;4.00;;;;;;;6.12;74.99;101585.78;1670623;85;21080;-83
2021/10/14 03:36:47;;;;;;;8.28;4.30;;;;;;;6.13;74.96;101574.91;1687118;85;21069;-83
2021/10/14 03:39:14;;;;;;;8.98;4.15;;;;;;;6.16;74.97;101579.02;1670528;85;21767;-83
2021/10/14 03:41:40;;;;;;;9.68;4.17;;;;;;;6.18;74.95;101570.84;1687289;85;21153;-82
2021/10/14 03:44:07;;;;;;;8.35;4.35;;;;;;;6.19;74.94;101572.63;1670656;85;21088;-82
2021/10/14 03:46:34;;;;;;;8.30;4.42;;;;;;;6.23;74.95;101571.59;1687454;85;21065;-82
2021/10/14 03:49:01;;;;;;;7.78;4.58;;;;;;;6.28;74.99;101558.77;1670581;85;21112;-83
2021/10/14 03:51:27;;;;;;;8.25;4.65;;;;;;;6.33;75.01;101560.34;1687062;85;21760;-82
2021/10/14 03:53:54;;;;;;;8.73;4.55;;;;;;;6.36;74.95;101550.03;1670205;85;21080;-82
2021/10/14 03:56:21;;;;;;;8.25;4.42;;;;;;;6.38;74.96;101553.23;1687358;85;21631;-81
2021/10/14 03:58:48;;;;;;;6.80;4.20;;;;;;;6.40;74.92;101547.69;1670498;85;21073;-83
2021/10/14 04:01:17;;;;;;;7.87;4.10;;;;;;;6.41;74.92;101544.66;1687434;85;21074;-84
2021/10/14 04:03:43;;;;;;;6.80;4.28;;;;;;;6.42;74.93;101546.47;1670785;85;23569;-84
2021/10/14 04:06:12;;;;;;;9.15;4.10;;;;;;;6.43;74.94;101543.91;1687505;85;21097;-85
2021/10/14 04:08:39;;;;;;;6.50;3.67;;;;;;;6.48;74.99;101548.52;1670569;85;21092;-80
2021/10/14 04:11:05;;;;;;;6.85;4.12;;;;;;;6.50;75.00;101545.16;1687712;85;21023;-81
2021/10/14 04:13:32;;;;;;;7.92;4.90;;;;;;;6.53;75.02;101540.09;1678831;84;21061;-78
2021/10/14 04:16:01;;;;;;;11.55;5.10;;;;;;;6.55;74.97;101541.46;1679200;84;21176;-79
2021/10/14 04:18:27;;;;;;;7.10;4.40;;;;;;;6.55;75.00;101534.92;1679121;84;21049;-79
2021/10/14 04:20:54;;;;;;;15.35;7.42;;;;;;;6.56;74.97;101541.55;1704286;83;21065;-78
2021/10/14 04:23:23;;;;;;;19.25;8.03;;;;;;;6.58;74.98;101541.64;1679884;85;21100;-81
2021/10/14 04:25:49;;;;;;;27.05;15.10;;;;;;;6.60;75.03;101536.08;1704626;83;21093;-83
2021/10/14 04:28:16;;;;;;;37.60;18.87;;;;;;;6.64;75.00;101538.45;1710082;82;21920;-82
2021/10/14 04:30:45;;;;;;;27.58;15.10;;;;;;;6.66;75.00;101537.70;1704614;84;21069;-83
2021/10/14 04:33:11;;;;;;;16.57;9.83;;;;;;;6.69;75.01;101540.50;1708791;82;20995;-81
2021/10/14 04:35:38;;;;;;;21.12;7.70;;;;;;;6.70;75.03;101533.53;1758399;81;21031;-83
2021/10/14 04:38:05;;;;;;;14.35;7.90;;;;;;;6.71;74.97;101534.94;1734288;81;21080;-83
2021/10/14 04:40:37;;;;;;;12.20;7.50;;;;;;;6.73;74.96;101546.38;1746735;81;21834;-84
2021/10/14 04:43:02;;;;;;;14.07;6.95;;;;;;;6.75;74.94;101543.84;1702854;83;21647;-83
2021/10/14 04:45:29;;;;;;;17.77;10.93;;;;;;;6.78;75.00;101540.98;1760679;81;21015;-82
2021/10/14 04:47:58;;;;;;;17.70;10.60;;;;;;;6.80;74.96;101543.27;1710659;82;21096;-81
2021/10/14 04:50:24;;;;;;;19.15;8.75;;;;;;;6.81;74.92;101537.63;1733012;82;22413;-81
2021/10/14 04:52:51;;;;;;;14.87;8.18;;;;;;;6.82;74.94;101536.81;1704008;84;21390;-81
2021/10/14 04:55:18;;;;;;;16.82;7.97;;;;;;;6.84;74.94;101539.52;1760176;81;21029;-80
2021/10/14 04:57:48;;;;;;;10.75;6.33;;;;;;;6.86;74.96;101537.88;1734579;82;21080;-81
2021/10/14 05:00:15;;;;;;;15.88;7.40;;;;;;;6.90;75.01;101541.14;1733113;82;21070;-81
2021/10/14 05:02:42;;;;;;;11.25;5.92;;;;;;;6.92;74.98;101540.81;1703673;84;21034;-81
2021/10/14 05:05:09;;;;;;;13.03;5.35;;;;;;;6.94;74.96;101539.17;1733027;82;22330;-80
2021/10/14 05:07:36;;;;;;;11.73;6.17;;;;;;;6.95;74.96;101536.64;1760237;81;21057;-83
2021/10/14 05:10:03;;;;;;;13.95;6.47;;;;;;;6.98;74.93;101538.13;1711338;82;21666;-82
2021/10/14 05:12:34;;;;;;;18.73;7.15;;;;;;;7.02;74.95;101539.19;1706153;84;21130;-81
2021/10/14 05:15:02;;;;;;;15.75;8.28;;;;;;;7.04;74.88;101534.00;1732351;82;21752;-81
2021/10/14 05:17:27;;;;;;;13.93;6.60;;;;;;;7.04;74.92;101537.92;1703357;84;21807;-81
2021/10/14 05:19:57;;;;;;;13.00;7.10;;;;;;;7.06;74.93;101535.90;1733487;82;21069;-81
2021/10/14 05:22:22;;;;;;;12.03;6.75;;;;;;;7.08;74.95;101532.05;1760210;81;21061;-82
2021/10/14 05:24:49;;;;;;;16.55;7.80;;;;;;;7.10;74.97;101527.38;1734938;82;21145;-82
2021/10/14 05:27:16;;;;;;;14.28;8.28;;;;;;;7.13;75.01;101534.09;1733343;82;21085;-82
2021/10/14 05:29:43;;;;;;;16.57;7.40;;;;;;;7.16;75.02;101530.30;1760471;81;21753;-81
2021/10/14 05:32:10;;;;;;;16.60;9.48;;;;;;;7.19;74.97;101527.85;1725467;82;21611;-81
2021/10/14 05:34:37;;;;;;;17.10;10.20;;;;;;;7.19;74.90;101530.47;1704870;84;21132;-81
2021/10/14 05:37:03;;;;;;;15.03;7.85;;;;;;;7.22;74.87;101532.33;1708094;84;21080;-81
2021/10/14 05:39:30;;;;;;;14.87;8.55;;;;;;;7.26;74.96;101527.73;1705287;84;21081;-81
2021/10/14 05:41:57;;;;;;;13.98;7.30;;;;;;;7.30;74.87;101527.48;1678172;84;21797;-81
2021/10/14 05:44:24;;;;;;;11.83;7.92;;;;;;;7.36;74.88;101526.50;1705011;84;21041;-81
2021/10/14 05:46:50;;;;;;;13.65;7.75;;;;;;;7.40;74.77;101526.72;1678340;85;21071;-81
2021/10/14 05:49:17;;;;;;;10.90;6.28;;;;;;;7.43;74.63;101527.70;1705087;84;21030;-81
2021/10/14 05:51:44;;;;;;;11.38;6.05;;;;;;;7.43;74.64;101533.83;1705143;84;21069;-81
2021/10/14 05:54:10;;;;;;;12.98;6.05;;;;;;;7.48;74.66;101540.20;1705215;84;21750;-81
2021/10/14 05:56:37;;;;;;;10.00;5.37;;;;;;;7.52;74.65;101532.09;1740829;81;21034;-81
2021/10/14 05:59:03;;;;;;;9.65;5.83;;;;;;;7.56;74.62;101531.02;1708138;83;21533;-81
2021/10/14 06:01:30;;;;;;;8.63;5.55;;;;;;;7.58;74.59;101529.38;1705422;84;21129;-81
2021/10/14 06:03:57;;;;;;;12.88;5.42;;;;;;;7.63;74.53;101535.25;1705075;84;21101;-81
2021/10/14 06:06:24;;;;;;;9.00;5.28;;;;;;;7.67;74.43;101535.88;1678160;84;21775;-81
2021/10/14 06:08:51;;;;;;;9.83;5.50;;;;;;;7.69;74.36;101527.26;1704944;84;21112;-81
2021/10/14 06:11:17;;;;;;;13.72;6.75;;;;;;;7.70;74.30;101531.70;1678004;84;21128;-81
2021/10/14 06:13:44;;;;;;;13.93;8.13;;;;;;;7.73;74.34;101523.99;1704984;84;21104;-81
2021/10/14 06:16:11;;;;;;;16.17;7.00;;;;;;;7.75;74.30;101515.79;1705205;84;21552;-80
2021/10/14 06:18:39;;;;;;;19.37;10.72;;;;;;;7.80;74.32;101519.93;1678157;84;22404;-81
2021/10/14 06:21:06;;;;;;;20.70;11.93;;;;;;;7.84;74.30;101519.25;1705073;84;21062;-81
2021/10/14 06:23:33;;;;;;;21.15;10.23;;;;;;;7.88;74.21;101510.73;1708152;83;21048;-81
2021/10/14 06:26:01;;;;;;;26.02;15.53;;;;;;;7.91;74.14;101515.22;1705051;84;21154;-81
2021/10/14 06:28:28;;;;;;;25.12;14.00;;;;;;;7.95;74.13;101518.04;1708245;83;21056;-81
2021/10/14 06:30:55;;;;;;;20.72;10.63;;;;;;;7.98;74.04;101516.89;1704860;84;21878;-81
2021/10/14 06:33:22;;;;;;;18.82;10.70;;;;;;;8.03;73.93;101517.52;1707954;82;21393;-81
2021/10/14 06:35:49;;;;;;;25.85;14.38;;;;;;;8.03;73.87;101517.09;1705064;84;21586;-81
2021/10/14 06:38:16;;;;;;;28.12;15.58;;;;;;;8.01;73.79;101512.19;1708432;84;21328;-81
2021/10/14 06:40:42;;;;;;;21.62;12.30;;;;;;;8.02;73.78;101515.73;1705344;84;21084;-81
2021/10/14 06:43:09;;;;;;;16.05;8.38;;;;;;;8.05;73.82;101525.04;1708523;83;21772;-81
2021/10/14 06:45:36;;;;;;;21.07;11.78;;;;;;;8.06;73.76;101530.36;1705292;84;21073;-81
2021/10/14 06:48:03;;;;;;;15.55;8.58;;;;;;;8.09;73.83;101528.28;1708314;83;21064;-81
2021/10/14 06:50:30;;;;;;;19.57;10.63;;;;;;;8.13;73.86;101525.89;1708268;83;21606;-81
2021/10/14 06:52:58;;;;;;;19.98;10.63;;;;;;;8.17;73.92;101519.08;1705241;84;21068;-81
2021/10/14 06:55:24;;;;;;;19.42;9.83;;;;;;;8.24;73.99;101513.69;1708195;84;21753;-81
2021/10/14 06:57:51;;;;;;;65.17;33.50;;;;;;;8.28;74.03;101516.55;1705052;84;22167;-81
2021/10/14 07:00:22;;;;;;;51.95;31.57;;;;;;;8.36;74.15;101512.53;1708358;83;21056;-81
2021/10/14 07:02:46;;;;;;;78.78;42.55;;;;;;;8.46;74.24;101515.63;1704511;84;21104;-81
2021/10/14 07:05:13;;;;;;;74.82;42.33;;;;;;;8.51;74.13;101508.44;1708219;82;21068;-81
2021/10/14 07:07:40;;;;;;;134.40;65.72;;;;;;;8.59;74.13;101511.41;1705036;84;21850;-81
2021/10/14 07:10:08;;;;;;;44.75;23.77;;;;;;;8.69;74.12;101514.03;1708193;82;21152;-81
2021/10/14 07:12:38;;;;;;;38.73;19.82;;;;;;;8.78;74.04;101514.44;1705090;84;21093;-81
2021/10/14 07:15:06;;;;;;;81.85;40.12;;;;;;;8.83;74.01;101509.41;1708213;83;21087;-81
2021/10/14 07:17:32;;;;;;;53.83;25.70;;;;;;;8.91;73.96;101513.27;1705189;84;21073;-81
2021/10/14 07:19:59;;;;;;;29.20;15.13;;;;;;;8.97;73.88;101508.70;1708123;84;22553;-81
2021/10/14 07:22:26;;;;;;;33.85;17.42;;;;;;;9.04;73.83;101506.82;1705166;84;21096;-81
2021/10/14 07:24:53;;;;;;;70.62;37.40;;;;;;;9.09;73.67;101502.67;1708176;83;21076;-81
2021/10/14 07:27:19;;;;;;;62.13;31.27;;;;;;;9.15;73.66;101507.75;1705113;84;21070;-81
2021/10/14 07:29:46;;;;;;;84.83;44.75;;;;;;;9.25;73.62;101506.45;1708087;83;21039;-82
2021/10/14 07:32:13;;;;;;;40.17;21.52;;;;;;;9.35;73.47;101507.73;1704791;82;21750;-81
2021/10/14 07:34:40;;;;;;;34.25;23.25;;;;;;;9.40;73.34;101510.53;1709887;83;21143;-81
2021/10/14 07:37:09;;;;;;;40.75;24.50;;;;;;;9.44;73.17;101508.50;1702517;84;21086;-81
2021/10/14 07:39:36;;;;;;;30.35;17.57;;;;;;;9.46;73.10;101507.76;1710320;83;21128;-81
2021/10/14 07:42:03;;;;;;;17.42;9.78;;;;;;;9.52;73.10;101501.86;1702393;84;21077;-80
2021/10/14 07:44:30;;;;;;;28.70;18.48;;;;;;;9.56;73.02;101502.45;1679985;84;21754;-80
2021/10/14 07:46:56;;;;;;;19.85;12.82;;;;;;;9.62;72.95;101499.19;1709962;83;21076;-81
2021/10/14 07:49:23;;;;;;;20.92;13.78;;;;;;;9.65;72.84;101500.64;1702086;84;21077;-81
2021/10/14 07:51:50;;;;;;;22.65;12.93;;;;;;;9.72;72.91;101494.77;1710131;83;21196;-81
2021/10/14 07:54:17;;;;;;;25.88;18.10;;;;;;;9.79;72.84;101487.61;1702532;84;21038;-81
2021/10/14 07:56:44;;;;;;;17.20;12.28;;;;;;;9.86;72.74;101483.50;1710357;83;21771;-81
2021/10/14 07:59:10;;;;;;;49.35;32.60;;;;;;;9.89;72.60;101484.52;1702491;84;21089;-81
2021/10/14 08:01:37;;;;;;;25.02;18.23;;;;;;;9.98;72.62;101487.91;1710328;83;21088;-81
2021/10/14 08:04:05;;;;;;;37.88;25.57;;;;;;;10.05;72.55;101489.06;1702374;84;21124;-81
2021/10/14 08:06:32;;;;;;;30.60;18.60;;;;;;;10.15;72.48;101482.42;1710477;83;21060;-81
2021/10/14 08:08:58;;;;;;;33.15;22.15;;;;;;;10.28;72.46;101477.67;1702390;84;21934;-81
2021/10/14 08:11:25;;;;;;;42.50;24.07;;;;;;;10.43;72.28;101483.08;1710220;83;21083;-81
2021/10/14 08:13:52;;;;;;;30.43;15.08;;;;;;;10.55;72.10;101478.67;1702336;84;21072;-81
2021/10/14 08:16:19;;;;;;;17.48;10.50;;;;;;;10.58;71.87;101471.79;1710176;83;21040;-81
2021/10/14 08:18:45;;;;;;;18.98;11.75;;;;;;;10.64;71.67;101473.75;1702289;84;21098;-82
2021/10/14 08:21:12;;;;;;;20.17;11.95;;;;;;;10.69;71.71;101467.80;1710235;83;21753;-81
2021/10/14 08:23:39;;;;;;;28.92;16.77;;;;;;;10.77;71.35;101468.08;1702273;84;21074;-81
2021/10/14 08:26:08;;;;;;;21.62;9.93;;;;;;;10.77;71.27;101468.08;1710286;83;21712;-80
2021/10/14 08:28:35;;;;;;;24.37;15.23;;;;;;;10.79;71.06;101469.45;1702367;84;21097;-81
2021/10/14 08:31:02;;;;;;;25.43;14.68;;;;;;;10.75;70.90;101471.08;1710099;83;21095;-81
2021/10/14 08:33:29;;;;;;;33.28;17.62;;;;;;;10.67;70.80;101469.92;1703328;82;21742;-81
2021/10/14 08:35:56;;;;;;;22.27;13.40;;;;;;;10.64;70.89;101478.62;1707744;83;21072;-81
2021/10/14 08:38:22;;;;;;;21.45;13.03;;;;;;;10.65;70.79;101475.55;1705043;84;21061;-81
2021/10/14 08:40:50;;;;;;;27.73;15.65;;;;;;;10.63;70.93;101472.86;1708128;83;21732;-81
2021/10/14 08:43:18;;;;;;;17.95;10.63;;;;;;;10.63;70.85;101474.17;1705161;84;21077;-81
2021/10/14 08:45:47;;;;;;;30.82;16.12;;;;;;;10.61;70.84;101474.55;1708205;83;21743;-81
2021/10/14 08:48:14;;;;;;;17.70;10.55;;;;;;;10.61;70.77;101473.23;1705050;84;21082;-81
2021/10/14 08:50:43;;;;;;;29.25;15.05;;;;;;;10.61;70.74;101474.97;1708086;83;21063;-81
2021/10/14 08:53:09;;;;;;;15.32;9.53;;;;;;;10.63;70.72;101474.17;1705115;84;21694;-82
2021/10/14 08:55:37;;;;;;;17.77;10.03;;;;;;;10.62;70.59;101475.44;1678325;84;21049;-81
2021/10/14 08:58:10;;;;;;;33.75;16.40;;;;;;;10.58;70.46;101472.22;1705139;84;22532;-81
2021/10/14 09:00:38;;;;;;;24.57;14.00;;;;;;;10.62;70.53;101471.09;1708054;84;21084;-81
2021/10/14 09:03:19;;;;;;;39.25;21.62;;;;;;;10.74;70.57;101468.42;1705273;84;21112;-81
2021/10/14 09:05:46;;;;;;;30.27;15.23;;;;;;;10.88;70.71;101464.09;1702747;83;21602;-81
2021/10/14 09:08:15;;;;;;;34.15;18.82;;;;;;;11.05;70.48;101455.88;1705400;84;21081;-81
2021/10/14 09:10:42;;;;;;;23.83;15.58;;;;;;;11.13;70.32;101449.55;1708303;83;22607;-81
2021/10/14 09:13:17;;;;;;;29.80;17.35;;;;;;;11.22;70.15;101448.55;1705101;84;21079;-81
2021/10/14 09:15:44;;;;;;;24.90;13.25;;;;;;;11.27;70.03;101445.66;1707971;83;21609;-81
2021/10/14 09:18:11;;;;;;;23.77;13.08;;;;;;;11.38;70.06;101432.84;1704958;84;21133;-81
2021/10/14 09:20:38;;;;;;;32.17;16.70;;;;;;;11.50;69.94;101442.88;1707946;83;21634;-81
2021/10/14 09:23:16;;;;;;;25.37;12.53;;;;;;;11.57;69.71;101444.87;1704837;84;22386;-81
2021/10/14 09:25:48;;;;;;;31.70;15.25;;;;;;;11.65;69.76;101446.88;1708000;82;21116;-81
2021/10/14 09:28:25;;;;;;;41.55;19.30;;;;;;;11.74;69.58;101443.65;1704954;84;21092;-81
2021/10/14 09:31:04;;;;;;;37.17;16.23;;;;;;;11.85;69.56;101438.28;1708091;84;21049;-81
2021/10/14 09:33:46;;;;;;;37.78;18.00;;;;;;;11.98;69.47;101437.39;1704450;82;21076;-81
2021/10/14 09:36:21;;;;;;;26.50;12.95;;;;;;;12.06;69.37;101435.43;1707583;83;22642;-81
2021/10/14 09:38:53;;;;;;;39.20;18.75;;;;;;;12.18;69.16;101430.96;1704243;84;21133;-81
2021/10/14 09:41:22;;;;;;;23.35;12.47;;;;;;;12.20;68.90;101431.90;1707680;84;21064;-82
2021/10/14 09:43:54;;;;;;;27.60;15.23;;;;;;;12.24;68.72;101423.21;1704764;84;21148;-81
2021/10/14 09:46:39;;;;;;;12.78;8.08;;;;;;;12.29;68.81;101430.36;1707695;84;21912;-82
2021/10/14 09:49:16;;;;;;;17.62;11.33;;;;;;;12.38;68.83;101431.95;1704596;84;21851;-81
2021/10/14 09:51:44;;;;;;;12.78;7.87;;;;;;;12.51;68.81;101422.63;1707854;82;21040;-81
2021/10/14 09:54:11;;;;;;;9.45;6.50;;;;;;;12.63;68.50;101418.98;1704921;84;21275;-81
2021/10/14 09:56:37;;;;;;;10.93;6.70;;;;;;;12.71;68.46;101425.83;1704941;84;21120;-82
2021/10/14 09:59:04;;;;;;;10.98;5.62;;;;;;;12.81;68.33;101426.09;1740779;81;21234;-81
2021/10/14 10:01:38;;;;;;;13.13;7.42;;;;;;;12.92;68.32;101414.50;1708116;83;21756;-82
2021/10/14 10:04:04;;;;;;;21.20;7.55;;;;;;;13.07;68.07;101417.08;1705243;84;21101;-82
2021/10/14 10:06:33;;;;;;;10.05;6.40;;;;;;;13.14;67.93;101409.78;1678176;85;21092;-81
2021/10/14 10:09:15;;;;;;;11.93;6.90;;;;;;;13.26;67.81;101413.14;1705149;84;21234;-81
2021/10/14 10:11:48;;;;;;;16.10;8.28;;;;;;;13.31;67.68;101408.47;1706992;83;21067;-81
2021/10/14 10:14:15;;;;;;;16.17;7.40;;;;;;;13.40;67.63;101410.02;1678336;85;21782;-81
2021/10/14 10:17:06;;;;;;;12.05;7.10;;;;;;;13.45;67.35;101406.14;1704930;84;21071;-81
2021/10/14 10:19:42;;;;;;;20.20;10.88;;;;;;;13.53;67.37;101405.91;1740426;81;21018;-82
2021/10/14 10:22:10;;;;;;;8.40;6.12;;;;;;;13.56;67.04;101405.08;1738274;82;21022;-82
2021/10/14 10:24:37;;;;;;;7.65;5.15;;;;;;;13.55;67.14;101405.92;1740972;81;21076;-81
2021/10/14 10:27:07;;;;;;;6.28;4.05;;;;;;;13.55;66.72;101397.98;1708431;83;21768;-82
2021/10/14 10:29:37;;;;;;;11.22;6.37;;;;;;;13.57;66.85;101393.63;1705170;84;21010;-81
2021/10/14 10:32:11;;;;;;;4.42;4.00;;;;;;;13.60;66.88;101391.06;1708396;84;21092;-82
2021/10/14 10:34:52;;;;;;;6.15;4.42;;;;;;;13.54;66.56;101388.28;1702958;83;21145;-82
2021/10/14 10:37:40;;;;;;;7.75;4.90;;;;;;;13.48;66.46;101389.03;1710201;83;21025;-82
2021/10/14 10:40:21;;;;;;;9.88;5.15;;;;;;;13.36;66.25;101393.61;1701038;84;21954;-81
2021/10/14 10:43:03;;;;;;;12.45;5.08;;;;;;;13.32;66.50;101397.02;1680229;85;21096;-81
2021/10/14 10:45:43;;;;;;;6.58;4.87;;;;;;;13.21;66.37;101384.85;1703505;84;21113;-82
2021/10/14 10:48:10;;;;;;;7.55;5.97;;;;;;;13.14;66.57;101391.27;1681941;84;21026;-82
2021/10/14 10:50:46;;;;;;;7.78;5.37;;;;;;;12.99;66.49;101382.09;1702279;84;21081;-82
2021/10/14 10:53:23;;;;;;;8.30;5.03;;;;;;;12.86;66.68;101381.32;1702374;84;21839;-82
2021/10/14 10:55:56;;;;;;;7.42;5.72;;;;;;;12.76;66.76;101384.56;1680064;84;21143;-82
2021/10/14 10:58:48;;;;;;;10.58;5.55;;;;;;;12.57;66.71;101381.42;1702466;84;21206;-82
2021/10/14 11:01:17;;;;;;;11.38;5.78;;;;;;;12.36;66.83;101372.50;1679702;85;21125;-82
2021/10/14 11:04:00;;;;;;;6.45;5.10;;;;;;;12.21;67.18;101374.28;1702426;84;21093;-82
2021/10/14 11:06:29;;;;;;;10.90;6.83;;;;;;;12.12;67.37;101373.13;1702329;84;22483;-82
2021/10/14 11:09:05;;;;;;;13.18;6.20;;;;;;;12.06;67.60;101368.58;1702243;84;21603;-82
2021/10/14 11:11:35;;;;;;;10.25;5.95;;;;;;;11.99;67.67;101372.80;1680250;85;21056;-82
2021/10/14 11:14:02;;;;;;;8.13;5.25;;;;;;;11.87;67.67;101367.11;1702231;84;21623;-82
2021/10/14 11:16:30;;;;;;;9.45;5.40;;;;;;;11.80;67.95;101367.77;1702477;84;21082;-81
2021/10/14 11:19:00;;;;;;;11.08;5.78;;;;;;;11.77;68.14;101361.08;1679033;84;21065;-81
2021/10/14 11:21:27;;;;;;;9.68;5.37;;;;;;;11.73;68.25;101356.16;1702207;84;21613;-82
2021/10/14 11:23:57;;;;;;;7.00;5.60;;;;;;;11.73;68.37;101354.84;1702318;84;21105;-81
2021/10/14 11:26:34;;;;;;;10.38;4.70;;;;;;;11.74;68.50;101352.66;1702525;84;21630;-81